Terminal Aerodrome Forecast
Issued by NWS

Home | Current Version | Previous Version | Graphics & Text | Print | Product List | Glossary On
Versions: 1 2 3 4 5 6 7 8 9 10 11 12 13 14 15 16 17 18 19 20
000
FTUS43 KGRB 012100 AAB
TAFATW
TAF AMD
KATW 012123Z 0121/0218 24011G16KT P6SM VCSH SCT015 BKN025 BKN060
      TEMPO 0121/0124 SCT025 BKN060
     FM020000 27006KT P6SM SCT030
     FM020300 28004KT P6SM SCT250
     FM021600 26008KT P6SM SCT040 BKN090=

USA.gov is the U.S. government's official web portal to all federal, state and local government web resources and services.